createdAt,value
2022-12-25T00:01:56.601Z,23.02
2022-12-25T00:04:24.501Z,21.17
2022-12-25T00:06:52.253Z,21.20
2022-12-25T00:09:20.103Z,21.00
2022-12-25T00:11:48.096Z,17.87
2022-12-25T00:14:15.768Z,20.02
2022-12-25T00:16:43.389Z,16.40
2022-12-25T00:19:11.442Z,22.17
2022-12-25T00:21:39.047Z,16.77
2022-12-25T00:24:07.127Z,12.90
2022-12-25T00:26:35.086Z,17.75
2022-12-25T00:29:02.613Z,17.20
2022-12-25T00:31:30.332Z,21.15
2022-12-25T00:33:58.216Z,20.60
2022-12-25T00:36:25.856Z,27.92
2022-12-25T00:38:53.502Z,22.62
2022-12-25T00:41:42.115Z,23.15
2022-12-25T00:44:12.522Z,23.38
2022-12-25T00:46:41.811Z,22.37
2022-12-25T00:49:10.274Z,22.05
2022-12-25T00:51:38.459Z,23.17
2022-12-25T00:54:06.595Z,36.10
2022-12-25T00:56:34.956Z,38.65
2022-12-25T00:59:02.582Z,43.67
2022-12-25T01:01:30.719Z,35.90
2022-12-25T01:03:58.977Z,31.92
2022-12-25T01:06:26.794Z,26.58
2022-12-25T01:09:18.061Z,27.05
2022-12-25T01:11:46.102Z,28.57
2022-12-25T01:14:14.478Z,28.40
2022-12-25T01:16:42.125Z,23.08
2022-12-25T01:19:11.727Z,28.23
2022-12-25T01:21:39.637Z,30.88
2022-12-25T01:24:07.395Z,28.83
2022-12-25T01:26:34.951Z,24.40
2022-12-25T01:29:03.123Z,29.08
2022-12-25T01:31:30.764Z,28.87
2022-12-25T01:33:58.451Z,27.70
2022-12-25T01:36:26.836Z,31.00
2022-12-25T01:38:55.094Z,24.42
2022-12-25T01:41:24.483Z,25.80
2022-12-25T01:44:03.334Z,25.23
2022-12-25T01:46:31.968Z,25.83
2022-12-25T01:49:22.956Z,20.15
2022-12-25T01:51:58.450Z,21.65
2022-12-25T01:54:36.645Z,15.30
2022-12-25T01:57:08.831Z,14.25
2022-12-25T01:59:37.303Z,14.63
2022-12-25T02:02:05.587Z,16.45
2022-12-25T02:04:40.397Z,19.05
2022-12-25T02:07:16.646Z,17.05
2022-12-25T02:09:46.869Z,16.42
2022-12-25T02:12:30.959Z,18.70
2022-12-25T02:15:05.789Z,11.48
2022-12-25T02:17:39.851Z,16.70
2022-12-25T02:20:37.823Z,16.60
2022-12-25T02:23:49.637Z,21.48
2022-12-25T02:26:38.556Z,19.42
2022-12-25T02:29:30.721Z,15.32
2022-12-25T02:32:05.809Z,14.85
2022-12-25T02:34:45.282Z,13.02
2022-12-25T02:37:19.972Z,15.07
2022-12-25T02:39:59.412Z,16.60
2022-12-25T02:43:17.354Z,14.63
2022-12-25T02:46:15.752Z,10.23
2022-12-25T02:49:07.278Z,12.73
2022-12-25T02:51:58.890Z,11.27
2022-12-25T02:57:44.973Z,10.15
2022-12-25T03:00:33.027Z,11.68
2022-12-25T03:03:22.008Z,13.65
2022-12-25T03:06:09.306Z,11.40
2022-12-25T03:08:44.110Z,12.30
2022-12-25T03:11:31.516Z,9.77
2022-12-25T03:14:23.327Z,10.82
2022-12-25T03:16:55.338Z,12.57
2022-12-25T03:20:04.444Z,12.98
2022-12-25T03:22:51.637Z,13.18
2022-12-25T03:25:38.677Z,13.48
2022-12-25T03:28:06.963Z,13.73
2022-12-25T03:31:13.989Z,15.30
2022-12-25T03:34:12.454Z,14.98
2022-12-25T03:37:32.970Z,18.37
2022-12-25T03:40:45.360Z,15.35
2022-12-25T03:57:28.373Z,12.63
2022-12-25T04:00:15.275Z,13.27
2022-12-25T04:03:02.018Z,14.20
2022-12-25T04:05:48.593Z,12.68
2022-12-25T04:08:35.401Z,8.30
2022-12-25T04:11:22.078Z,9.57
2022-12-25T04:14:08.481Z,11.23
2022-12-25T04:16:54.678Z,11.10
2022-12-25T04:19:41.147Z,12.30
2022-12-25T04:22:27.270Z,9.82
2022-12-25T04:25:13.865Z,7.57
2022-12-25T04:27:59.974Z,10.55
2022-12-25T04:30:46.508Z,8.73
2022-12-25T04:33:33.004Z,17.02
2022-12-25T04:36:09.791Z,10.88
2022-12-25T04:38:38.168Z,9.93
2022-12-25T04:41:08.446Z,11.43
2022-12-25T04:43:36.017Z,11.12
2022-12-25T04:46:05.128Z,11.23
2022-12-25T04:48:35.684Z,10.70
2022-12-25T04:51:18.028Z,9.60
2022-12-25T04:53:47.263Z,11.45
2022-12-25T04:56:15.317Z,11.85
2022-12-25T04:58:43.330Z,9.05
2022-12-25T05:01:12.333Z,11.65
2022-12-25T05:03:40.181Z,13.73
2022-12-25T05:06:08.127Z,9.02
2022-12-25T05:08:37.035Z,10.73
2022-12-25T05:11:09.848Z,9.73
2022-12-25T05:13:38.847Z,10.65
2022-12-25T05:16:16.519Z,10.27
2022-12-25T05:18:44.607Z,10.10
2022-12-25T05:21:12.744Z,10.38
2022-12-25T05:23:48.532Z,12.70
2022-12-25T05:26:19.617Z,15.00
2022-12-25T05:28:47.694Z,10.80
2022-12-25T05:31:15.402Z,15.35
2022-12-25T05:33:43.427Z,8.52
2022-12-25T05:36:12.942Z,8.95
2022-12-25T05:38:40.525Z,8.38
2022-12-25T05:41:08.458Z,9.20
2022-12-25T05:43:35.992Z,8.23
2022-12-25T05:46:08.596Z,10.73
2022-12-25T05:48:37.968Z,15.35
2022-12-25T05:51:07.730Z,13.38
2022-12-25T05:53:35.525Z,7.72
2022-12-25T05:56:05.821Z,15.13
2022-12-25T05:58:35.301Z,11.35
2022-12-25T06:01:03.277Z,19.50
2022-12-25T06:03:31.579Z,22.02
2022-12-25T06:05:59.220Z,10.35
2022-12-25T06:08:26.819Z,9.50
2022-12-25T06:10:54.701Z,7.35
2022-12-25T06:13:22.267Z,8.20
2022-12-25T06:15:49.899Z,8.10
2022-12-25T06:18:17.771Z,13.05
2022-12-25T06:20:45.443Z,21.73
2022-12-25T06:23:13.151Z,23.08
2022-12-25T06:25:41.098Z,22.33
2022-12-25T06:28:08.988Z,21.98
2022-12-25T06:30:36.552Z,21.65
2022-12-25T06:33:04.449Z,18.98
2022-12-25T06:35:32.002Z,18.70
2022-12-25T06:38:00.481Z,15.73
2022-12-25T06:40:28.409Z,14.40
2022-12-25T06:42:55.922Z,13.25
2022-12-25T06:45:23.564Z,11.70
2022-12-25T06:47:51.713Z,71.22
2022-12-25T06:50:19.334Z,62.95
2022-12-25T06:52:46.908Z,44.03
2022-12-25T06:55:14.782Z,42.08
2022-12-25T06:57:42.385Z,42.38
2022-12-25T07:00:10.418Z,34.22
2022-12-25T07:02:38.837Z,22.95
2022-12-25T07:05:06.781Z,29.12
2022-12-25T07:07:34.499Z,29.63
2022-12-25T07:10:02.373Z,23.65
2022-12-25T07:12:30.068Z,23.20
2022-12-25T07:15:02.400Z,27.20
2022-12-25T07:17:30.341Z,27.17
2022-12-25T07:19:57.908Z,19.62
2022-12-25T07:22:25.630Z,14.13
2022-12-25T07:24:53.450Z,14.32
2022-12-25T07:27:21.050Z,18.17
2022-12-25T07:29:49.099Z,24.08
2022-12-25T07:32:17.084Z,37.97
2022-12-25T07:34:44.971Z,30.55
2022-12-25T07:37:13.135Z,26.62
2022-12-25T07:39:41.075Z,16.65
2022-12-25T07:42:08.846Z,13.52
2022-12-25T07:44:36.385Z,14.63
2022-12-25T07:47:04.321Z,15.90
2022-12-25T07:49:32.031Z,13.43
2022-12-25T07:51:59.583Z,13.52
2022-12-25T07:54:27.398Z,14.65
2022-12-25T07:56:54.956Z,13.13
2022-12-25T07:59:22.526Z,16.52
2022-12-25T08:01:51.059Z,47.70
2022-12-25T08:04:19.257Z,20.42
2022-12-25T08:06:46.891Z,31.95
2022-12-25T08:09:14.494Z,29.02
2022-12-25T08:11:46.860Z,22.33
2022-12-25T08:14:14.854Z,45.58
2022-12-25T08:16:42.777Z,27.20
2022-12-25T08:19:11.264Z,18.02
2022-12-25T08:21:38.989Z,21.20
2022-12-25T08:24:07.074Z,24.08
2022-12-25T08:26:34.695Z,22.30
2022-12-25T08:29:02.429Z,24.70
2022-12-25T08:31:31.368Z,24.98
2022-12-25T08:33:59.078Z,13.85
2022-12-25T08:36:27.188Z,17.08
2022-12-25T08:39:02.174Z,14.20
2022-12-25T08:41:31.651Z,16.80
2022-12-25T08:43:59.507Z,13.55
2022-12-25T08:46:27.063Z,11.25
2022-12-25T08:48:56.733Z,11.27
2022-12-25T08:51:26.206Z,15.73
2022-12-25T08:53:59.053Z,13.60
2022-12-25T08:56:27.096Z,11.27
2022-12-25T08:58:54.769Z,13.07
2022-12-25T09:01:22.409Z,10.95
2022-12-25T09:03:50.559Z,11.70
2022-12-25T09:06:18.273Z,13.00
2022-12-25T09:08:49.050Z,12.10
2022-12-25T09:11:19.950Z,10.18
2022-12-25T09:13:48.974Z,12.75
2022-12-25T09:16:21.023Z,12.98
2022-12-25T09:18:48.936Z,9.60
2022-12-25T09:21:17.485Z,12.15
2022-12-25T09:23:45.369Z,11.15
2022-12-25T09:26:15.251Z,12.57
2022-12-25T09:28:50.305Z,14.80
2022-12-25T09:31:19.134Z,14.27
2022-12-25T09:33:47.468Z,12.02
2022-12-25T09:36:15.227Z,13.55
2022-12-25T09:38:43.047Z,11.43
2022-12-25T09:41:32.114Z,13.18
2022-12-25T09:44:12.562Z,14.40
2022-12-25T09:47:08.450Z,21.67
2022-12-25T09:50:00.385Z,16.67
2022-12-25T09:52:46.303Z,27.00
2022-12-25T09:55:20.459Z,10.70
2022-12-25T09:57:58.721Z,31.75
2022-12-25T10:00:36.059Z,15.52
2022-12-25T10:03:10.599Z,20.70
2022-12-25T10:05:44.075Z,18.45
2022-12-25T10:08:41.004Z,15.38
2022-12-25T10:11:26.518Z,21.95
2022-12-25T10:14:07.330Z,24.40
2022-12-25T10:16:57.119Z,9.25
2022-12-25T10:19:34.066Z,17.02
2022-12-25T10:22:09.434Z,48.60
2022-12-25T10:24:43.829Z,42.10
2022-12-25T10:27:32.145Z,22.75
2022-12-25T10:30:01.845Z,18.52
2022-12-25T10:32:30.042Z,31.10
2022-12-25T10:34:57.613Z,43.90
2022-12-25T10:37:25.475Z,57.67
2022-12-25T10:39:53.175Z,27.40
2022-12-25T10:42:34.714Z,24.67
2022-12-25T10:45:09.134Z,15.05
2022-12-25T10:47:42.659Z,22.60
2022-12-25T10:50:24.823Z,16.75
2022-12-25T10:53:00.910Z,29.35
2022-12-25T10:55:29.862Z,15.13
2022-12-25T10:57:59.165Z,34.45
2022-12-25T11:00:32.215Z,21.15
2022-12-25T11:03:00.807Z,25.55
2022-12-25T11:05:31.319Z,27.60
2022-12-25T11:08:01.262Z,116.37
2022-12-25T11:10:34.208Z,28.67
2022-12-25T11:13:02.917Z,52.10
2022-12-25T11:15:44.584Z,16.52
2022-12-25T11:18:35.597Z,24.45
2022-12-25T11:21:16.515Z,31.50
2022-12-25T11:23:50.218Z,109.93
2022-12-25T11:26:18.705Z,83.12
2022-12-25T11:28:48.822Z,22.33
2022-12-25T11:31:19.728Z,23.00
2022-12-25T11:36:43.746Z,18.05
2022-12-25T11:39:21.836Z,16.65
2022-12-25T11:41:53.891Z,20.40
2022-12-25T11:44:36.713Z,15.85
2022-12-25T11:47:15.085Z,38.63
2022-12-25T11:49:51.512Z,40.20
2022-12-25T11:52:22.718Z,68.60
2022-12-25T11:55:02.923Z,44.22
2022-12-25T11:57:33.022Z,22.62
2022-12-25T12:00:09.506Z,29.65
2022-12-25T12:02:48.881Z,29.42
2022-12-25T12:05:21.606Z,33.72
2022-12-25T12:07:55.796Z,53.87
2022-12-25T12:10:32.858Z,33.47
2022-12-25T12:13:23.691Z,41.10
2022-12-25T12:15:51.698Z,18.80
2022-12-25T12:18:23.433Z,23.75
2022-12-25T12:21:03.319Z,22.87
2022-12-25T12:23:54.408Z,22.73
2022-12-25T12:26:24.869Z,33.67
2022-12-25T12:28:57.298Z,32.78
2022-12-25T12:31:36.419Z,34.15
2022-12-25T12:34:05.127Z,42.40
2022-12-25T12:36:36.960Z,74.87
2022-12-25T12:39:06.073Z,38.63
2022-12-25T12:41:52.860Z,27.52
2022-12-25T12:44:25.441Z,79.30
2022-12-25T12:46:55.949Z,48.70
2022-12-25T12:49:32.939Z,44.28
2022-12-25T12:52:24.836Z,65.78
2022-12-25T12:54:59.899Z,106.53
2022-12-25T12:57:34.483Z,19.98
2022-12-25T13:00:09.858Z,54.55
2022-12-25T13:02:50.067Z,63.72
2022-12-25T13:05:42.169Z,34.50
2022-12-25T13:08:33.400Z,54.90
2022-12-25T13:11:20.378Z,24.80
2022-12-25T13:13:50.876Z,24.10
2022-12-25T13:16:24.558Z,51.50
2022-12-25T13:18:53.985Z,112.95
2022-12-25T13:21:28.408Z,47.72
2022-12-25T13:23:58.589Z,45.70
2022-12-25T13:26:27.542Z,24.50
2022-12-25T13:28:56.262Z,34.63
2022-12-25T13:31:29.283Z,35.83
2022-12-25T13:34:05.696Z,33.58
2022-12-25T13:36:38.450Z,34.40
2022-12-25T13:39:16.765Z,27.87
2022-12-25T13:42:06.252Z,24.35
2022-12-25T13:44:40.127Z,33.85
2022-12-25T13:47:19.079Z,32.50
2022-12-25T13:49:48.435Z,35.42
2022-12-25T13:52:21.634Z,35.63
2022-12-25T13:55:03.928Z,32.20
2022-12-25T13:57:36.869Z,31.45
2022-12-25T14:00:07.183Z,33.28
2022-12-25T14:02:38.290Z,30.03
2022-12-25T14:05:22.840Z,30.58
2022-12-25T14:07:55.605Z,32.65
2022-12-25T14:10:26.134Z,33.08
2022-12-25T14:12:58.359Z,40.55
2022-12-25T14:15:30.430Z,31.73
2022-12-25T14:17:59.443Z,26.50
2022-12-25T14:20:30.155Z,25.02
2022-12-25T14:23:00.777Z,25.50
2022-12-25T14:25:43.093Z,21.85
2022-12-25T14:28:20.646Z,22.42
2022-12-25T14:30:48.560Z,25.35
2022-12-25T14:33:21.165Z,21.27
2022-12-25T14:35:50.123Z,22.70
2022-12-25T14:38:28.191Z,21.20
2022-12-25T14:41:05.110Z,22.02
2022-12-25T14:43:34.658Z,26.37
2022-12-25T14:46:06.520Z,33.80
2022-12-25T14:48:34.970Z,23.73
2022-12-25T14:51:07.503Z,25.02
2022-12-25T14:53:38.082Z,28.70
2022-12-25T14:56:08.453Z,46.00
2022-12-25T14:58:42.895Z,27.95
2022-12-25T15:01:33.685Z,34.13
2022-12-25T15:04:10.483Z,35.17
2022-12-25T15:06:56.628Z,37.33
2022-12-25T15:09:24.545Z,44.97
2022-12-25T15:11:55.544Z,36.95
2022-12-25T15:14:24.455Z,38.50
2022-12-25T15:16:55.659Z,37.33
2022-12-25T15:19:34.802Z,38.28
2022-12-25T15:22:05.616Z,35.65
2022-12-25T15:24:33.329Z,44.08
2022-12-25T15:27:01.619Z,36.35
2022-12-25T15:30:07.953Z,31.65
2022-12-25T15:32:22.571Z,31.27
2022-12-25T15:34:51.325Z,33.10
2022-12-25T15:37:19.006Z,30.70
2022-12-25T15:39:46.659Z,28.70
2022-12-25T15:42:18.017Z,30.02
2022-12-25T15:44:46.499Z,28.45
2022-12-25T15:47:16.800Z,35.85
2022-12-25T15:49:44.393Z,61.63
2022-12-25T15:52:14.227Z,35.28
2022-12-25T15:54:42.576Z,42.58
2022-12-25T15:57:18.060Z,34.15
2022-12-25T15:59:46.231Z,63.40
2022-12-25T16:02:19.492Z,36.83
2022-12-25T16:04:47.697Z,68.20
2022-12-25T16:07:20.612Z,52.13
2022-12-25T16:09:48.660Z,74.65
2022-12-25T16:12:16.393Z,146.80
2022-12-25T16:14:43.965Z,60.65
2022-12-25T16:17:14.904Z,77.35
2022-12-25T16:19:44.706Z,41.47
2022-12-25T16:22:14.398Z,49.17
2022-12-25T16:24:42.262Z,64.90
2022-12-25T16:27:09.821Z,55.28
2022-12-25T16:29:37.761Z,58.47
2022-12-25T16:32:05.299Z,62.15
2022-12-25T16:34:32.817Z,46.13
2022-12-25T16:37:00.659Z,44.67
2022-12-25T16:39:28.914Z,100.15
2022-12-25T16:41:56.821Z,92.47
2022-12-25T16:44:24.739Z,62.67
2022-12-25T16:46:52.237Z,175.12
2022-12-25T16:49:19.884Z,48.47
2022-12-25T16:51:47.705Z,51.30
2022-12-25T16:54:15.323Z,51.25
2022-12-25T16:56:42.903Z,48.80
2022-12-25T16:59:10.956Z,51.75
2022-12-25T17:01:43.189Z,46.92
2022-12-25T17:04:14.212Z,51.47
2022-12-25T17:06:41.896Z,71.10
2022-12-25T17:09:10.721Z,78.53
2022-12-25T17:11:38.704Z,246.05
2022-12-25T17:14:06.763Z,118.60
2022-12-25T17:16:36.564Z,162.88
2022-12-25T17:19:09.660Z,108.30
2022-12-25T17:21:38.489Z,216.30
2022-12-25T17:24:07.226Z,79.72
2022-12-25T17:26:34.853Z,114.80
2022-12-25T17:29:02.499Z,61.53
2022-12-25T17:31:30.636Z,68.78
2022-12-25T17:34:00.744Z,54.90
2022-12-25T17:36:28.788Z,73.00
2022-12-25T17:38:59.701Z,101.15
2022-12-25T17:41:27.589Z,41.72
2022-12-25T17:43:55.106Z,32.47
2022-12-25T17:46:28.368Z,184.37
2022-12-25T17:48:57.780Z,65.40
2022-12-25T17:51:27.842Z,159.18
2022-12-25T17:53:58.911Z,132.32
2022-12-25T17:58:56.879Z,50.53
2022-12-25T18:01:26.182Z,73.10
2022-12-25T18:03:55.102Z,58.08
2022-12-25T18:06:25.263Z,112.85
2022-12-25T18:08:54.445Z,257.05
2022-12-25T18:11:33.096Z,201.32
2022-12-25T18:14:04.320Z,129.93
2022-12-25T18:19:01.472Z,48.10
2022-12-25T18:21:29.500Z,57.10
2022-12-25T18:23:57.852Z,77.25
2022-12-25T18:26:26.078Z,117.07
2022-12-25T18:28:53.964Z,134.18
2022-12-25T18:31:24.282Z,106.90
2022-12-25T18:33:52.657Z,70.10
2022-12-25T18:36:23.372Z,73.95
2022-12-25T18:38:53.679Z,104.53
2022-12-25T18:41:22.558Z,93.85
2022-12-25T18:43:53.122Z,58.05
2022-12-25T18:46:25.576Z,82.60
2022-12-25T18:48:56.588Z,52.78
2022-12-25T18:51:26.653Z,43.10
2022-12-25T18:53:57.377Z,62.90
2022-12-25T18:56:25.230Z,74.15
2022-12-25T18:58:52.760Z,38.88
2022-12-25T19:01:23.704Z,28.48
2022-12-25T19:06:26.934Z,65.93
2022-12-25T19:08:56.354Z,43.95
2022-12-25T19:11:23.969Z,35.78
2022-12-25T19:13:51.636Z,33.25
2022-12-25T19:16:19.571Z,33.75
2022-12-25T19:18:47.205Z,44.80
2022-12-25T19:21:16.014Z,37.10
2022-12-25T19:23:44.152Z,73.00
2022-12-25T19:26:12.207Z,57.33
2022-12-25T19:28:39.997Z,23.77
2022-12-25T19:31:09.142Z,49.58
2022-12-25T19:33:41.795Z,35.63
2022-12-25T19:36:13.104Z,57.08
2022-12-25T19:38:41.279Z,88.47
2022-12-25T19:41:12.353Z,123.07
2022-12-25T19:43:41.762Z,27.10
2022-12-25T19:46:22.404Z,34.72
2022-12-25T19:48:50.325Z,32.53
2022-12-25T19:51:21.818Z,26.52
2022-12-25T19:53:50.021Z,21.48
2022-12-25T19:56:18.171Z,19.90
2022-12-25T19:58:47.192Z,70.50
2022-12-25T20:01:18.923Z,115.62
2022-12-25T20:03:48.490Z,77.68
2022-12-25T20:06:26.131Z,63.87
2022-12-25T20:08:57.007Z,35.38
2022-12-25T20:11:28.287Z,31.52
2022-12-25T20:13:57.103Z,77.28
2022-12-25T20:16:25.663Z,66.37
2022-12-25T20:18:53.578Z,32.13
2022-12-25T20:21:23.144Z,66.15
2022-12-25T20:23:52.476Z,30.17
2022-12-25T20:26:24.675Z,33.08
2022-12-25T20:28:52.855Z,62.75
2022-12-25T20:31:30.681Z,58.50
2022-12-25T20:34:01.449Z,90.35
2022-12-25T20:36:36.126Z,45.00
2022-12-25T20:39:08.642Z,105.97
2022-12-25T20:41:36.804Z,59.30
2022-12-25T20:44:06.461Z,63.92
2022-12-25T20:46:34.771Z,69.43
2022-12-25T20:49:03.011Z,25.37
2022-12-25T20:51:30.891Z,98.97
2022-12-25T20:53:58.829Z,112.30
2022-12-25T20:56:29.000Z,17.48
2022-12-25T20:58:59.049Z,34.25
2022-12-25T21:01:29.562Z,66.43
2022-12-25T21:03:58.489Z,71.90
2022-12-25T21:06:26.251Z,57.10
2022-12-25T21:08:54.227Z,38.30
2022-12-25T21:11:22.058Z,37.35
2022-12-25T21:13:50.246Z,18.33
2022-12-25T21:16:22.358Z,19.42
2022-12-25T21:18:53.136Z,21.00
2022-12-25T21:21:21.821Z,23.85
2022-12-25T21:23:49.407Z,18.67
2022-12-25T21:26:25.647Z,18.30
2022-12-25T21:28:57.269Z,25.02
2022-12-25T21:31:25.216Z,18.05
2022-12-25T21:33:55.104Z,22.37
2022-12-25T21:36:27.397Z,27.35
2022-12-25T21:39:05.482Z,27.52
2022-12-25T21:41:34.803Z,23.98
2022-12-25T21:44:02.647Z,24.70
2022-12-25T21:46:30.356Z,28.67
2022-12-25T21:48:59.133Z,26.20
2022-12-25T21:51:48.376Z,22.55
2022-12-25T21:54:17.508Z,22.23
2022-12-25T21:56:47.237Z,22.67
2022-12-25T21:59:17.982Z,21.25
2022-12-25T22:01:46.984Z,24.63
2022-12-25T22:04:16.382Z,25.77
2022-12-25T22:07:04.302Z,18.05
2022-12-25T22:09:32.315Z,20.27
2022-12-25T22:12:18.747Z,22.77
2022-12-25T22:14:55.824Z,22.30
2022-12-25T22:17:46.229Z,24.10
2022-12-25T22:20:22.373Z,22.13
2022-12-25T22:22:50.117Z,19.75
2022-12-25T22:25:19.059Z,21.52
2022-12-25T22:27:47.836Z,19.70
2022-12-25T22:30:21.232Z,22.08
2022-12-25T22:32:49.794Z,23.55
2022-12-25T22:35:18.103Z,20.20
2022-12-25T22:37:46.501Z,20.65
2022-12-25T22:40:16.694Z,22.30
2022-12-25T22:42:44.456Z,21.37
2022-12-25T22:45:16.447Z,25.98
2022-12-25T22:47:44.255Z,22.45
2022-12-25T22:50:14.736Z,19.95
2022-12-25T22:52:43.134Z,25.42
2022-12-25T22:55:11.177Z,23.12
2022-12-25T22:57:38.768Z,20.30
2022-12-25T23:00:08.908Z,20.25
2022-12-25T23:02:36.920Z,20.45
2022-12-25T23:05:04.964Z,20.23
2022-12-25T23:07:32.511Z,18.60
2022-12-25T23:10:00.543Z,21.27
2022-12-25T23:12:46.892Z,20.85
2022-12-25T23:15:14.761Z,18.83
2022-12-25T23:18:01.389Z,21.02
2022-12-25T23:20:47.996Z,22.95
2022-12-25T23:23:35.471Z,19.62
2022-12-25T23:26:09.803Z,24.67
2022-12-25T23:28:59.376Z,23.80
2022-12-25T23:31:35.361Z,23.60
2022-12-25T23:34:05.244Z,19.87
2022-12-25T23:36:34.133Z,22.00
2022-12-25T23:39:08.996Z,21.45
2022-12-25T23:41:39.690Z,23.20
2022-12-25T23:44:07.766Z,22.87
2022-12-25T23:46:35.779Z,20.90
2022-12-25T23:49:04.007Z,23.45
2022-12-25T23:51:31.835Z,20.90
2022-12-25T23:53:59.451Z,21.48
2022-12-25T23:56:27.345Z,21.33
2022-12-25T23:58:55.018Z,19.10
